TimePST,TemperatureF,Dew PointF,Humidity,Sea Level PressureIn,VisibilityMPH,Wind Direction,Wind SpeedMPH,Gust SpeedMPH,PrecipitationIn,Events,Conditions,WindDirDegrees,DateUTC
12:56 AM,37.9,30.0,73,29.82,10.0,Calm,Calm,-,N/A,,Partly Cloudy,0,2012-12-22 08:56:00
1:56 AM,39.0,30.0,70,29.81,10.0,SE,5.8,-,N/A,,Clear,140,2012-12-22 09:56:00
2:56 AM,39.9,30.0,68,29.80,10.0,ESE,5.8,-,N/A,,Clear,120,2012-12-22 10:56:00
3:56 AM,39.0,30.9,73,29.78,10.0,SSE,3.5,-,N/A,,Scattered Clouds,160,2012-12-22 11:56:00
4:56 AM,37.0,30.0,76,29.78,10.0,Calm,Calm,-,N/A,,Scattered Clouds,0,2012-12-22 12:56:00
5:56 AM,36.0,28.9,76,29.75,10.0,SSE,8.1,-,N/A,,Clear,150,2012-12-22 13:56:00
6:56 AM,39.0,30.0,70,29.72,10.0,ESE,4.6,-,N/A,,Overcast,120,2012-12-22 14:56:00
7:56 AM,37.0,30.9,79,29.71,10.0,Calm,Calm,-,N/A,,Mostly Cloudy,0,2012-12-22 15:56:00
8:56 AM,39.9,30.9,70,29.69,10.0,South,4.6,-,N/A,,Mostly Cloudy,170,2012-12-22 16:56:00
9:56 AM,44.1,30.9,60,29.68,10.0,ENE,6.9,-,N/A,,Mostly Cloudy,60,2012-12-22 17:56:00
10:56 AM,46.0,32.0,58,29.64,10.0,NE,6.9,-,N/A,,Clear,50,2012-12-22 18:56:00
11:56 AM,46.9,34.0,61,29.62,10.0,West,5.8,-,N/A,,Clear,260,2012-12-22 19:56:00
12:56 PM,46.9,35.1,63,29.61,10.0,WNW,4.6,-,N/A,,Partly Cloudy,300,2012-12-22 20:56:00
1:56 PM,50.0,30.9,48,29.61,10.0,Calm,Calm,-,N/A,,Overcast,0,2012-12-22 21:56:00
2:44 PM,48.2,32.0,54,29.63,10.0,West,13.8,23.0,N/A,,Overcast,280,2012-12-22 22:44:00
2:56 PM,46.9,34.0,61,29.66,10.0,NW,16.1,21.9,N/A,,Overcast,310,2012-12-22 22:56:00
3:29 PM,46.4,33.8,62,29.67,1.5,WSW,4.6,-,N/A,,Overcast,240,2012-12-22 23:29:00
3:31 PM,46.4,33.8,62,29.67,10.0,WSW,4.6,-,N/A,,Overcast,240,2012-12-22 23:31:00
3:56 PM,46.0,33.1,61,29.70,10.0,South,9.2,-,N/A,,Overcast,180,2012-12-22 23:56:00
4:56 PM,45.0,30.9,58,29.72,10.0,South,6.9,-,N/A,,Overcast,190,2012-12-23 00:56:00
5:56 PM,45.0,30.9,58,29.73,10.0,South,15.0,-,N/A,,Overcast,180,2012-12-23 01:56:00
6:56 PM,45.0,30.9,58,29.75,10.0,South,9.2,-,N/A,,Scattered Clouds,190,2012-12-23 02:56:00
7:56 PM,44.1,30.0,58,29.78,10.0,SSW,5.8,-,N/A,,Mostly Cloudy,200,2012-12-23 03:56:00
8:56 PM,42.1,28.9,60,29.81,7.0,Variable,3.5,-,N/A,,Clear,0,2012-12-23 04:56:00
9:56 PM,37.9,28.9,70,29.83,10.0,ESE,4.6,-,N/A,,Partly Cloudy,110,2012-12-23 05:56:00
10:56 PM,37.9,30.0,73,29.86,10.0,SSE,3.5,-,N/A,,Clear,160,2012-12-23 06:56:00
11:56 PM,37.9,30.0,73,29.88,10.0,Calm,Calm,-,N/A,,Clear,0,2012-12-23 07:56:00